createdAt,value
2019-03-27T00:01:54.345Z,8.60
2019-03-27T00:04:59.303Z,8.43
2019-03-27T00:08:04.191Z,8.10
2019-03-27T00:11:09.171Z,7.53
2019-03-27T00:14:13.900Z,6.60
2019-03-27T00:17:18.843Z,7.00
2019-03-27T00:20:23.727Z,6.33
2019-03-27T00:23:29.699Z,5.90
2019-03-27T00:26:34.583Z,5.20
2019-03-27T00:29:39.544Z,4.50
2019-03-27T00:32:44.363Z,5.53
2019-03-27T00:35:49.273Z,4.83
2019-03-27T00:38:54.180Z,4.40
2019-03-27T00:41:59.137Z,4.40
2019-03-27T00:45:04.287Z,4.27
2019-03-27T00:48:09.264Z,4.57
2019-03-27T00:51:14.089Z,4.90
2019-03-27T00:54:18.997Z,4.30
2019-03-27T00:57:23.849Z,3.93
2019-03-27T01:00:42.385Z,4.23
2019-03-27T01:03:47.263Z,4.37
2019-03-27T01:06:52.119Z,3.87
2019-03-27T01:09:56.991Z,4.17
2019-03-27T01:13:01.961Z,4.73
2019-03-27T01:16:06.846Z,3.90
2019-03-27T01:19:11.770Z,4.93
2019-03-27T01:22:16.631Z,6.23
2019-03-27T01:25:21.467Z,7.47
2019-03-27T01:28:26.399Z,7.23
2019-03-27T01:31:31.322Z,8.93
2019-03-27T01:34:36.242Z,9.23
2019-03-27T01:37:41.150Z,10.30
2019-03-27T01:40:46.041Z,10.07
2019-03-27T01:43:50.959Z,10.47
2019-03-27T01:46:55.866Z,11.17
2019-03-27T01:50:00.794Z,11.43
2019-03-27T01:53:05.692Z,12.23
2019-03-27T01:56:10.622Z,11.40
2019-03-27T01:59:15.517Z,9.87
2019-03-27T02:02:20.382Z,9.53
2019-03-27T02:05:25.255Z,9.43
2019-03-27T02:08:30.098Z,9.17
2019-03-27T02:11:34.997Z,8.53
2019-03-27T02:14:40.153Z,7.67
2019-03-27T02:17:45.052Z,7.83
2019-03-27T02:20:49.978Z,6.97
2019-03-27T02:23:54.862Z,6.70
2019-03-27T02:26:59.934Z,6.70
2019-03-27T02:30:05.682Z,6.33
2019-03-27T02:33:10.591Z,5.27
2019-03-27T02:36:15.462Z,5.60
2019-03-27T02:39:20.391Z,5.63
2019-03-27T02:42:25.283Z,4.80
2019-03-27T02:45:30.211Z,6.07
2019-03-27T02:48:35.111Z,6.60
2019-03-27T02:51:40.048Z,6.93
2019-03-27T02:54:44.943Z,6.53
2019-03-27T02:57:49.856Z,6.50
2019-03-27T03:00:54.811Z,6.00
2019-03-27T03:03:59.721Z,5.40
2019-03-27T03:07:04.626Z,6.23
2019-03-27T03:10:10.834Z,6.07
2019-03-27T03:13:15.732Z,5.87
2019-03-27T03:16:20.774Z,5.60
2019-03-27T03:19:25.659Z,5.10
2019-03-27T03:22:30.588Z,5.70
2019-03-27T03:25:35.476Z,4.50
2019-03-27T03:28:40.398Z,5.10
2019-03-27T03:31:45.363Z,5.33
2019-03-27T03:34:50.282Z,5.37
2019-03-27T03:37:55.164Z,5.93
2019-03-27T03:41:00.093Z,5.33
2019-03-27T03:44:04.971Z,4.87
2019-03-27T03:47:10.003Z,5.07
2019-03-27T03:50:37.871Z,6.87
2019-03-27T03:53:42.914Z,10.20
2019-03-27T03:56:50.724Z,11.33
2019-03-27T03:59:55.652Z,14.07
2019-03-27T04:03:01.000Z,15.03
2019-03-27T04:06:09.834Z,16.73
2019-03-27T04:09:14.740Z,18.43
2019-03-27T04:12:19.721Z,17.30
2019-03-27T04:15:24.596Z,15.83
2019-03-27T04:18:29.513Z,15.83
2019-03-27T04:21:34.319Z,15.07
2019-03-27T04:24:39.251Z,15.03
2019-03-27T04:27:44.144Z,11.30
2019-03-27T04:30:50.093Z,12.57
2019-03-27T04:33:55.099Z,12.77
2019-03-27T04:37:00.053Z,10.83
2019-03-27T04:40:05.311Z,10.73
2019-03-27T04:43:10.576Z,10.43
2019-03-27T04:46:15.453Z,10.27
2019-03-27T04:49:20.291Z,9.93
2019-03-27T04:52:25.126Z,10.13
2019-03-27T04:55:30.030Z,10.03
2019-03-27T04:58:34.842Z,9.60
2019-03-27T05:01:39.743Z,9.53
2019-03-27T05:04:44.978Z,10.03
2019-03-27T05:07:49.807Z,9.30
2019-03-27T05:10:54.638Z,9.17
2019-03-27T05:13:59.574Z,10.73
2019-03-27T05:17:04.471Z,10.53
2019-03-27T05:20:10.626Z,10.87
2019-03-27T05:23:15.530Z,11.57
2019-03-27T05:26:20.484Z,11.50
2019-03-27T05:29:25.387Z,10.57
2019-03-27T05:32:30.288Z,10.00
2019-03-27T05:35:35.209Z,9.83
2019-03-27T05:38:40.052Z,10.73
2019-03-27T05:41:44.959Z,9.10
2019-03-27T05:44:49.813Z,9.13
2019-03-27T05:47:59.904Z,9.10
2019-03-27T05:51:01.283Z,8.57
2019-03-27T05:54:06.167Z,9.33
2019-03-27T05:57:11.362Z,8.63
2019-03-27T06:00:17.591Z,9.00
2019-03-27T06:03:22.518Z,8.10
2019-03-27T06:06:27.501Z,9.07
2019-03-27T06:09:32.423Z,8.43
2019-03-27T06:12:37.234Z,9.63
2019-03-27T06:15:44.963Z,8.23
2019-03-27T06:18:48.687Z,9.60
2019-03-27T06:21:53.620Z,8.73
2019-03-27T06:24:58.566Z,10.17
2019-03-27T06:28:03.495Z,10.47
2019-03-27T06:31:09.571Z,10.70
2019-03-27T06:34:14.586Z,9.90
2019-03-27T06:37:19.551Z,10.50
2019-03-27T06:40:24.410Z,10.33
2019-03-27T06:43:29.313Z,12.43
2019-03-27T06:46:34.258Z,11.50
2019-03-27T06:49:39.181Z,11.33
2019-03-27T06:52:44.255Z,10.70
2019-03-27T06:55:49.283Z,10.33
2019-03-27T06:58:55.099Z,9.73
2019-03-27T07:02:00.137Z,8.77
2019-03-27T07:05:07.420Z,8.10
2019-03-27T07:08:12.435Z,8.10
2019-03-27T07:11:17.385Z,7.93
2019-03-27T07:14:22.307Z,8.27
2019-03-27T07:17:27.237Z,7.47
2019-03-27T07:20:32.158Z,7.20
2019-03-27T07:23:37.416Z,7.33
2019-03-27T07:26:42.279Z,8.27
2019-03-27T07:29:47.200Z,7.03
2019-03-27T07:32:52.119Z,6.57
2019-03-27T07:35:57.126Z,6.53
2019-03-27T07:39:10.875Z,6.33
2019-03-27T07:42:08.644Z,5.80
2019-03-27T07:45:13.916Z,5.77
2019-03-27T07:48:18.786Z,5.63
2019-03-27T07:51:23.663Z,4.53
2019-03-27T07:54:28.503Z,4.43
2019-03-27T07:57:33.384Z,5.47
2019-03-27T08:00:38.314Z,5.57
2019-03-27T08:03:43.215Z,4.97
2019-03-27T08:06:48.140Z,5.03
2019-03-27T08:09:53.153Z,4.47
2019-03-27T08:12:58.123Z,4.57
2019-03-27T08:16:02.936Z,5.30
2019-03-27T08:19:08.294Z,5.30
2019-03-27T08:22:13.200Z,5.13
2019-03-27T08:25:18.301Z,5.47
2019-03-27T08:28:23.223Z,5.70
2019-03-27T08:31:28.085Z,5.20
2019-03-27T08:34:33.019Z,5.67
2019-03-27T08:37:38.158Z,5.97
2019-03-27T08:40:43.191Z,5.93
2019-03-27T08:43:48.062Z,6.73
2019-03-27T08:46:52.981Z,5.80
2019-03-27T08:49:57.866Z,6.27
2019-03-27T08:53:02.782Z,6.37
2019-03-27T08:56:07.700Z,6.13
2019-03-27T08:59:12.696Z,5.80
2019-03-27T09:02:19.447Z,5.47
2019-03-27T09:05:24.321Z,5.40
2019-03-27T09:08:29.276Z,5.87
2019-03-27T09:11:34.252Z,5.37
2019-03-27T09:14:39.191Z,5.07
2019-03-27T09:17:44.094Z,5.23
2019-03-27T09:20:49.067Z,5.23
2019-03-27T09:23:53.958Z,5.87
2019-03-27T09:26:58.915Z,6.27
2019-03-27T09:30:05.476Z,5.73
2019-03-27T09:33:10.432Z,5.53
2019-03-27T09:36:15.316Z,6.03
2019-03-27T09:39:20.254Z,5.77
2019-03-27T09:42:25.145Z,5.23
2019-03-27T09:45:30.078Z,7.10
2019-03-27T09:48:34.979Z,5.23
2019-03-27T09:51:39.936Z,4.63
2019-03-27T09:54:44.844Z,4.80
2019-03-27T09:57:49.777Z,4.83
2019-03-27T10:01:03.175Z,4.57
2019-03-27T10:04:08.112Z,4.77
2019-03-27T10:07:12.994Z,4.10
2019-03-27T10:10:17.861Z,3.93
2019-03-27T10:13:22.748Z,4.53
2019-03-27T10:16:27.676Z,4.97
2019-03-27T10:19:32.552Z,3.97
2019-03-27T10:22:37.481Z,4.17
2019-03-27T10:25:42.367Z,4.73
2019-03-27T10:28:47.213Z,4.60
2019-03-27T10:31:52.115Z,4.53
2019-03-27T10:34:57.071Z,4.93
2019-03-27T10:38:01.966Z,5.33
2019-03-27T10:41:06.918Z,4.97
2019-03-27T10:44:11.914Z,4.47
2019-03-27T10:47:16.896Z,4.30
2019-03-27T10:50:21.804Z,3.93
2019-03-27T10:53:26.729Z,4.03
2019-03-27T10:56:31.611Z,4.23
2019-03-27T10:59:36.543Z,4.90
2019-03-27T11:02:41.423Z,3.90
2019-03-27T11:05:46.376Z,4.23
2019-03-27T11:08:51.274Z,4.60
2019-03-27T11:11:56.228Z,4.13
2019-03-27T11:15:01.193Z,3.73
2019-03-27T11:18:06.259Z,4.57
2019-03-27T11:21:11.063Z,4.47
2019-03-27T11:24:16.023Z,4.40
2019-03-27T11:27:20.922Z,3.97
2019-03-27T11:30:35.804Z,3.73
2019-03-27T11:33:40.735Z,4.53
2019-03-27T11:36:45.675Z,3.90
2019-03-27T11:39:50.568Z,4.30
2019-03-27T11:42:55.440Z,4.20
2019-03-27T11:46:00.359Z,4.10
2019-03-27T11:49:05.318Z,4.60
2019-03-27T11:52:10.221Z,4.13
2019-03-27T11:55:15.147Z,4.27
2019-03-27T11:58:19.968Z,4.90
2019-03-27T12:01:24.833Z,4.80
2019-03-27T12:04:29.732Z,4.23
2019-03-27T12:07:34.682Z,4.07
2019-03-27T12:10:39.563Z,3.60
2019-03-27T12:13:44.435Z,3.90
2019-03-27T12:16:50.109Z,3.67
2019-03-27T12:19:55.176Z,3.53
2019-03-27T12:22:59.988Z,3.43
2019-03-27T12:26:05.439Z,2.57
2019-03-27T12:29:10.382Z,3.03
2019-03-27T12:32:15.267Z,3.17
2019-03-27T12:35:20.098Z,3.03
2019-03-27T12:38:26.259Z,2.67
2019-03-27T12:41:33.056Z,3.23
2019-03-27T12:44:37.718Z,2.90
2019-03-27T12:47:42.674Z,2.80
2019-03-27T12:50:47.607Z,3.20
2019-03-27T12:53:52.483Z,3.27
2019-03-27T12:56:57.429Z,3.07
2019-03-27T13:00:02.334Z,3.70
2019-03-27T13:03:07.363Z,3.70
2019-03-27T13:06:12.272Z,3.20
2019-03-27T13:09:17.200Z,3.50
2019-03-27T13:12:22.095Z,3.17
2019-03-27T13:15:26.948Z,3.93
2019-03-27T13:18:31.797Z,3.50
2019-03-27T13:21:36.716Z,3.63
2019-03-27T13:24:41.591Z,3.77
2019-03-27T13:27:47.616Z,3.33
2019-03-27T13:30:52.651Z,3.53
2019-03-27T13:33:57.502Z,3.83
2019-03-27T13:37:02.396Z,3.53
2019-03-27T13:40:07.938Z,3.53
2019-03-27T13:43:12.839Z,3.40
2019-03-27T13:46:17.790Z,3.80
2019-03-27T13:49:22.672Z,4.20
2019-03-27T13:52:27.521Z,3.80
2019-03-27T13:55:35.100Z,3.60
2019-03-27T13:58:39.016Z,3.93
2019-03-27T14:01:43.909Z,3.37
2019-03-27T14:04:48.872Z,3.70
2019-03-27T14:07:53.799Z,4.00
2019-03-27T14:10:58.744Z,3.80
2019-03-27T14:14:11.215Z,3.70
2019-03-27T14:17:10.519Z,4.00
2019-03-27T14:20:15.802Z,3.27
2019-03-27T14:23:20.728Z,4.03
2019-03-27T14:26:28.605Z,3.40
2019-03-27T14:29:33.620Z,3.33
2019-03-27T14:32:38.596Z,3.87
2019-03-27T14:35:43.652Z,3.50
2019-03-27T14:38:48.577Z,3.63
2019-03-27T14:41:53.615Z,3.63
2019-03-27T14:44:59.893Z,4.00
2019-03-27T14:48:05.156Z,3.97
2019-03-27T14:51:10.165Z,3.97
2019-03-27T14:54:15.111Z,3.37
2019-03-27T14:57:20.008Z,3.57
2019-03-27T15:00:25.260Z,3.57
2019-03-27T15:03:30.208Z,4.37
2019-03-27T15:06:35.156Z,3.87
2019-03-27T15:09:43.047Z,3.90
2019-03-27T15:12:47.918Z,3.13
2019-03-27T15:15:52.854Z,3.57
2019-03-27T15:18:57.826Z,4.03
2019-03-27T15:22:02.863Z,4.73
2019-03-27T15:25:08.208Z,3.90
2019-03-27T15:28:13.139Z,4.07
2019-03-27T15:31:20.791Z,4.33
2019-03-27T15:34:24.624Z,4.30
2019-03-27T15:37:29.502Z,3.90
2019-03-27T15:40:41.973Z,4.33
2019-03-27T15:43:48.624Z,4.53
2019-03-27T15:46:53.574Z,4.20
2019-03-27T15:49:58.547Z,3.77
2019-03-27T15:53:03.576Z,4.20
2019-03-27T15:56:08.504Z,4.07
2019-03-27T15:59:13.430Z,3.87
2019-03-27T16:02:18.384Z,4.67
2019-03-27T16:05:23.280Z,4.07
2019-03-27T16:08:28.201Z,4.17
2019-03-27T16:11:33.100Z,4.83
2019-03-27T16:14:38.046Z,4.70
2019-03-27T16:17:42.966Z,5.13
2019-03-27T16:20:48.118Z,4.60
2019-03-27T16:24:05.799Z,6.20
2019-03-27T16:27:04.598Z,5.57
2019-03-27T16:30:08.823Z,5.50
2019-03-27T16:33:14.051Z,5.93
2019-03-27T16:36:18.976Z,6.20
2019-03-27T16:39:23.942Z,6.43
2019-03-27T16:42:28.867Z,5.87
2019-03-27T16:45:33.880Z,6.40
2019-03-27T16:48:38.783Z,6.43
2019-03-27T16:51:43.747Z,6.33
2019-03-27T16:54:48.673Z,6.10
2019-03-27T16:57:53.543Z,6.67
2019-03-27T17:00:58.482Z,6.43
2019-03-27T17:04:03.452Z,6.60
2019-03-27T17:07:08.380Z,6.53
2019-03-27T17:10:13.614Z,7.43
2019-03-27T17:13:18.502Z,7.07
2019-03-27T17:16:23.440Z,6.87
2019-03-27T17:19:28.350Z,9.17
2019-03-27T17:22:33.280Z,8.90
2019-03-27T17:25:38.273Z,10.07
2019-03-27T17:28:43.188Z,9.43
2019-03-27T17:31:48.133Z,9.90
2019-03-27T17:34:53.055Z,9.60
2019-03-27T17:37:58.247Z,10.03
2019-03-27T17:41:03.230Z,10.93
2019-03-27T17:44:08.258Z,10.00
2019-03-27T17:47:13.215Z,10.40
2019-03-27T17:50:18.105Z,9.90
2019-03-27T17:53:31.388Z,11.40
2019-03-27T17:56:29.666Z,12.40
2019-03-27T17:59:34.602Z,15.50
2019-03-27T18:02:39.525Z,23.87
2019-03-27T18:05:47.610Z,23.60
2019-03-27T18:08:52.516Z,26.73
2019-03-27T18:11:57.390Z,28.60
2019-03-27T18:15:02.487Z,28.17
2019-03-27T18:18:07.775Z,28.20
2019-03-27T18:21:13.337Z,29.07
2019-03-27T18:24:18.258Z,29.87
2019-03-27T18:27:23.200Z,30.50
2019-03-27T18:30:28.132Z,31.97
2019-03-27T18:33:34.235Z,31.17
2019-03-27T18:36:39.290Z,34.43
2019-03-27T18:39:45.936Z,35.10
2019-03-27T18:42:50.864Z,35.23
2019-03-27T18:45:55.786Z,39.17
2019-03-27T18:49:00.734Z,35.53
2019-03-27T18:52:05.739Z,40.13
2019-03-27T18:55:11.237Z,43.47
2019-03-27T18:58:16.190Z,42.17
2019-03-27T19:01:21.252Z,43.50
2019-03-27T19:04:26.658Z,44.73
2019-03-27T19:07:31.817Z,46.43
2019-03-27T19:10:36.730Z,48.80
2019-03-27T19:13:41.652Z,49.43
2019-03-27T19:16:48.881Z,50.93
2019-03-27T19:19:56.058Z,54.07
2019-03-27T19:23:00.913Z,52.27
2019-03-27T19:26:05.893Z,53.17
2019-03-27T19:29:10.859Z,53.27
2019-03-27T19:32:15.816Z,53.43
2019-03-27T19:35:20.733Z,53.13
2019-03-27T19:38:25.701Z,52.13
2019-03-27T19:41:30.611Z,52.13
2019-03-27T19:44:36.036Z,52.33
2019-03-27T19:47:40.875Z,52.57
2019-03-27T19:50:46.002Z,52.80
2019-03-27T19:53:53.762Z,52.03
2019-03-27T19:56:58.717Z,53.57
2019-03-27T20:00:04.106Z,51.30
2019-03-27T20:03:09.114Z,51.67
2019-03-27T20:06:15.315Z,50.90
2019-03-27T20:09:20.371Z,54.07
2019-03-27T20:12:25.320Z,52.43
2019-03-27T20:15:30.296Z,55.97
2019-03-27T20:18:35.247Z,55.03
2019-03-27T20:21:41.287Z,55.13
2019-03-27T20:24:46.499Z,56.63
2019-03-27T20:27:51.486Z,57.17
2019-03-27T20:30:58.402Z,56.50
2019-03-27T20:34:04.358Z,59.93
2019-03-27T20:37:10.216Z,58.40
2019-03-27T20:40:15.765Z,58.70
2019-03-27T20:43:21.553Z,59.47
2019-03-27T20:46:29.364Z,59.67
2019-03-27T20:49:35.021Z,58.90
2019-03-27T20:52:39.975Z,57.63
2019-03-27T20:55:45.931Z,62.10
2019-03-27T20:58:51.771Z,63.57
2019-03-27T21:01:57.387Z,62.03
2019-03-27T21:05:02.625Z,61.17
2019-03-27T21:08:08.672Z,60.33
2019-03-27T21:11:14.841Z,58.43
2019-03-27T21:14:19.834Z,58.53
2019-03-27T21:17:25.031Z,60.30
2019-03-27T21:20:29.919Z,56.60
2019-03-27T21:23:34.847Z,55.80
2019-03-27T21:26:39.754Z,57.80
2019-03-27T21:29:44.694Z,57.63
2019-03-27T21:32:49.661Z,58.00
2019-03-27T21:35:54.618Z,55.73
2019-03-27T21:38:59.573Z,57.40
2019-03-27T21:42:04.535Z,55.53
2019-03-27T21:45:09.973Z,58.63
2019-03-27T21:48:14.852Z,57.10
2019-03-27T21:51:19.775Z,57.10
2019-03-27T21:54:24.718Z,57.80
2019-03-27T21:57:29.666Z,57.03
2019-03-27T22:00:38.894Z,56.33
2019-03-27T22:03:43.796Z,55.10
2019-03-27T22:06:48.741Z,55.03
2019-03-27T22:09:53.646Z,56.70
2019-03-27T22:12:58.592Z,54.23
2019-03-27T22:16:04.526Z,55.57
2019-03-27T22:19:09.764Z,55.10
2019-03-27T22:22:14.715Z,54.00
2019-03-27T22:25:19.631Z,55.27
2019-03-27T22:28:24.482Z,54.47
2019-03-27T22:31:29.419Z,52.63
2019-03-27T22:34:34.405Z,56.47
2019-03-27T22:37:39.351Z,56.03
2019-03-27T22:40:44.227Z,54.40
2019-03-27T22:43:49.085Z,52.77
2019-03-27T22:46:53.984Z,52.80
2019-03-27T22:49:58.841Z,52.93
2019-03-27T22:53:03.984Z,53.00
2019-03-27T22:56:08.891Z,53.03
2019-03-27T22:59:13.703Z,52.07
2019-03-27T23:02:18.644Z,50.73
2019-03-27T23:05:23.599Z,51.97
2019-03-27T23:08:28.454Z,55.57
2019-03-27T23:11:34.624Z,53.67
2019-03-27T23:14:39.666Z,56.93
2019-03-27T23:17:44.691Z,56.60
2019-03-27T23:20:49.551Z,61.97
2019-03-27T23:23:54.389Z,62.27
2019-03-27T23:26:59.334Z,63.37
2019-03-27T23:30:05.001Z,62.73
2019-03-27T23:33:09.935Z,63.23
2019-03-27T23:36:14.873Z,65.17
2019-03-27T23:39:19.826Z,67.17
2019-03-27T23:42:24.781Z,69.23
2019-03-27T23:45:29.721Z,69.27
2019-03-27T23:48:34.621Z,70.43
2019-03-27T23:51:39.539Z,70.17
2019-03-27T23:54:44.385Z,70.47
2019-03-27T23:57:49.342Z,71.33
